createdAt,value
2023-04-17T00:01:25.329Z,7.22
2023-04-17T00:03:54.719Z,7.22
2023-04-17T00:06:22.454Z,7.22
2023-04-17T00:08:51.487Z,7.23
2023-04-17T00:11:19.142Z,7.22
2023-04-17T00:13:46.922Z,7.22
2023-04-17T00:16:14.706Z,7.22
2023-04-17T00:18:42.409Z,7.22
2023-04-17T00:21:14.603Z,7.21
2023-04-17T00:23:42.325Z,7.20
2023-04-17T00:26:09.984Z,7.21
2023-04-17T00:28:38.838Z,7.20
2023-04-17T00:31:08.062Z,7.19
2023-04-17T00:33:37.768Z,7.18
2023-04-17T00:36:06.415Z,7.19
2023-04-17T00:38:35.451Z,7.15
2023-04-17T00:41:04.186Z,7.14
2023-04-17T00:43:31.956Z,7.15
2023-04-17T00:46:00.420Z,7.15
2023-04-17T00:48:28.336Z,7.13
2023-04-17T00:50:56.186Z,7.12
2023-04-17T00:53:24.044Z,7.11
2023-04-17T00:55:53.340Z,7.08
2023-04-17T00:58:21.778Z,7.08
2023-04-17T01:00:50.558Z,7.05
2023-04-17T01:03:18.486Z,7.05
2023-04-17T01:05:51.173Z,7.04
2023-04-17T01:08:19.319Z,7.04
2023-04-17T01:10:47.375Z,7.01
2023-04-17T01:13:16.719Z,7.01
2023-04-17T01:15:44.750Z,7.00
2023-04-17T01:18:12.999Z,7.00
2023-04-17T01:20:41.113Z,6.98
2023-04-17T01:23:08.778Z,6.97
2023-04-17T01:25:37.978Z,6.98
2023-04-17T01:28:05.984Z,6.97
2023-04-17T01:30:33.751Z,6.96
2023-04-17T01:33:04.655Z,6.96
2023-04-17T01:35:35.455Z,6.93
2023-04-17T01:38:03.419Z,6.92
2023-04-17T01:40:31.096Z,6.92
2023-04-17T01:43:01.668Z,6.90
2023-04-17T01:45:29.580Z,6.88
2023-04-17T01:47:57.702Z,6.84
2023-04-17T01:50:25.370Z,6.83
2023-04-17T01:52:53.058Z,6.80
2023-04-17T01:55:20.758Z,6.79
2023-04-17T01:57:52.030Z,6.75
2023-04-17T02:00:22.862Z,6.72
2023-04-17T02:02:50.955Z,6.69
2023-04-17T02:05:19.961Z,6.65
2023-04-17T02:07:47.898Z,6.61
2023-04-17T02:10:15.598Z,6.59
2023-04-17T02:12:44.403Z,6.55
2023-04-17T02:15:13.236Z,6.52
2023-04-17T02:17:42.261Z,6.49
2023-04-17T02:20:12.559Z,6.46
2023-04-17T02:22:40.370Z,6.42
2023-04-17T02:25:08.621Z,6.39
2023-04-17T02:27:36.497Z,6.36
2023-04-17T02:30:04.804Z,6.31
2023-04-17T02:32:32.514Z,6.29
2023-04-17T02:35:01.694Z,6.26
2023-04-17T02:37:29.379Z,6.23
2023-04-17T02:39:57.722Z,6.20
2023-04-17T02:42:25.500Z,6.19
2023-04-17T02:44:53.858Z,6.16
2023-04-17T02:47:22.570Z,6.13
2023-04-17T02:49:53.038Z,6.10
2023-04-17T02:52:22.072Z,6.08
2023-04-17T02:54:51.206Z,6.04
2023-04-17T02:57:19.319Z,6.02
2023-04-17T02:59:47.101Z,5.98
2023-04-17T03:02:14.863Z,5.94
2023-04-17T03:04:43.845Z,5.90
2023-04-17T03:07:13.243Z,5.86
2023-04-17T03:09:42.799Z,5.83
2023-04-17T03:12:10.746Z,5.77
2023-04-17T03:14:38.395Z,5.74
2023-04-17T03:17:06.156Z,5.69
2023-04-17T03:19:33.831Z,5.64
2023-04-17T03:22:02.394Z,5.61
2023-04-17T03:24:31.597Z,5.58
2023-04-17T03:27:02.234Z,5.54
2023-04-17T03:29:37.636Z,5.49
2023-04-17T03:32:06.632Z,5.46
2023-04-17T03:34:39.369Z,5.41
2023-04-17T03:37:37.527Z,5.36
2023-04-17T03:40:23.013Z,5.32
2023-04-17T03:42:59.279Z,5.28
2023-04-17T03:45:27.047Z,5.24
2023-04-17T03:47:56.039Z,5.23
2023-04-17T03:50:23.921Z,5.20
2023-04-17T03:52:56.527Z,5.18
2023-04-17T03:55:26.774Z,5.15
2023-04-17T03:57:56.666Z,5.12
2023-04-17T04:00:26.104Z,5.10
2023-04-17T04:02:59.078Z,5.08
2023-04-17T04:05:31.699Z,5.05
2023-04-17T04:07:59.446Z,5.04
2023-04-17T04:10:34.569Z,5.02
2023-04-17T04:13:03.616Z,4.99
2023-04-17T04:15:31.321Z,4.96
2023-04-17T04:18:03.680Z,4.95
2023-04-17T04:20:32.329Z,4.93
2023-04-17T04:23:13.242Z,4.92
2023-04-17T04:25:42.830Z,4.90
2023-04-17T04:28:24.248Z,4.88
2023-04-17T04:30:53.066Z,4.87
2023-04-17T04:33:22.389Z,4.86
2023-04-17T04:35:51.335Z,4.85
2023-04-17T04:38:19.355Z,4.84
2023-04-17T04:40:50.160Z,4.83
2023-04-17T04:43:19.595Z,4.84
2023-04-17T04:45:50.917Z,4.84
2023-04-17T04:48:18.670Z,4.84
2023-04-17T04:50:46.565Z,4.84
2023-04-17T04:53:14.303Z,4.83
2023-04-17T04:55:52.873Z,4.83
2023-04-17T04:58:21.249Z,4.86
2023-04-17T05:00:52.777Z,4.87
2023-04-17T05:03:28.440Z,4.88
2023-04-17T05:05:57.297Z,4.91
2023-04-17T05:08:29.443Z,4.91
2023-04-17T05:11:09.000Z,4.93
2023-04-17T05:13:38.543Z,4.94
2023-04-17T05:16:11.055Z,4.97
2023-04-17T05:18:39.687Z,4.98
2023-04-17T05:21:11.611Z,5.00
2023-04-17T05:23:40.620Z,5.02
2023-04-17T05:26:09.125Z,5.03
2023-04-17T05:28:41.267Z,5.04
2023-04-17T05:31:10.867Z,5.04
2023-04-17T05:33:42.192Z,5.06
2023-04-17T05:36:10.318Z,5.07
2023-04-17T05:38:40.602Z,5.07
2023-04-17T05:41:10.901Z,5.06
2023-04-17T05:43:42.713Z,5.07
2023-04-17T05:46:11.966Z,5.08
2023-04-17T05:48:44.804Z,5.08
2023-04-17T05:51:12.779Z,5.10
2023-04-17T05:53:40.463Z,5.10
2023-04-17T05:56:08.477Z,5.12
2023-04-17T05:58:38.562Z,5.14
2023-04-17T06:01:07.669Z,5.16
2023-04-17T06:03:37.818Z,5.20
2023-04-17T06:06:13.227Z,5.23
2023-04-17T06:08:41.025Z,5.28
2023-04-17T06:11:08.894Z,5.32
2023-04-17T06:13:37.028Z,5.38
2023-04-17T06:16:05.747Z,5.44
2023-04-17T06:18:33.492Z,5.49
2023-04-17T06:21:02.831Z,5.55
2023-04-17T06:23:31.068Z,5.63
2023-04-17T06:25:58.766Z,5.71
2023-04-17T06:28:26.453Z,5.77
2023-04-17T06:30:56.353Z,5.85
2023-04-17T06:33:26.912Z,5.96
2023-04-17T06:35:56.605Z,6.03
2023-04-17T06:38:54.413Z,6.13
2023-04-17T06:41:25.012Z,6.20
2023-04-17T06:43:54.447Z,6.29
2023-04-17T06:46:22.868Z,6.39
2023-04-17T06:48:55.522Z,6.48
2023-04-17T06:51:24.957Z,6.55
2023-04-17T06:54:00.166Z,6.66
2023-04-17T06:56:27.912Z,6.77
2023-04-17T06:59:01.799Z,6.88
2023-04-17T07:01:35.959Z,6.99
2023-04-17T07:04:04.010Z,7.11
2023-04-17T07:06:33.825Z,7.20
2023-04-17T07:09:06.838Z,7.28
2023-04-17T07:11:36.448Z,7.38
2023-04-17T07:14:04.129Z,7.47
2023-04-17T07:16:31.785Z,7.54
2023-04-17T07:18:59.485Z,7.59
2023-04-17T07:21:27.728Z,7.64
2023-04-17T07:23:55.385Z,7.66
2023-04-17T07:26:24.761Z,7.71
2023-04-17T07:28:53.082Z,7.74
2023-04-17T07:31:22.178Z,7.77
2023-04-17T07:33:50.615Z,7.83
2023-04-17T07:36:19.363Z,7.87
2023-04-17T07:38:47.020Z,7.91
2023-04-17T07:41:14.621Z,7.95
2023-04-17T07:43:43.623Z,7.97
2023-04-17T07:46:11.273Z,8.01
2023-04-17T07:48:39.139Z,8.04
2023-04-17T07:51:07.675Z,8.11
2023-04-17T07:53:37.361Z,8.20
2023-04-17T07:56:07.712Z,8.29
2023-04-17T07:58:36.320Z,8.45
2023-04-17T08:01:06.108Z,8.59
2023-04-17T08:03:34.275Z,8.73
2023-04-17T08:06:05.243Z,8.87
2023-04-17T08:08:33.175Z,9.02
2023-04-17T08:11:00.781Z,9.15
2023-04-17T08:13:30.468Z,9.26
2023-04-17T08:15:59.528Z,9.44
2023-04-17T08:18:28.534Z,9.66
2023-04-17T08:20:56.182Z,9.87
2023-04-17T08:23:23.856Z,10.04
2023-04-17T08:25:51.484Z,10.22
2023-04-17T08:28:19.667Z,10.45
2023-04-17T08:30:47.471Z,10.66
2023-04-17T08:33:16.955Z,10.83
2023-04-17T08:35:47.261Z,10.97
2023-04-17T08:38:14.923Z,11.07
2023-04-17T08:40:46.565Z,11.17
2023-04-17T08:43:16.047Z,11.27
2023-04-17T08:45:53.877Z,11.42
2023-04-17T08:48:22.651Z,11.61
2023-04-17T08:50:54.921Z,11.83
2023-04-17T08:53:22.932Z,12.06
2023-04-17T08:55:50.633Z,12.26
2023-04-17T08:58:21.857Z,12.43
2023-04-17T09:00:49.485Z,12.61
2023-04-17T09:03:17.415Z,12.77
2023-04-17T09:05:46.515Z,12.97
2023-04-17T09:08:17.539Z,13.19
2023-04-17T09:10:47.117Z,13.42
2023-04-17T09:13:17.492Z,13.65
2023-04-17T09:15:48.227Z,13.88
2023-04-17T09:18:25.123Z,14.11
2023-04-17T09:20:58.661Z,14.36
2023-04-17T09:23:30.201Z,14.58
2023-04-17T09:26:09.457Z,14.81
2023-04-17T09:28:39.617Z,14.99
2023-04-17T09:31:25.526Z,15.14
2023-04-17T09:33:57.696Z,15.31
2023-04-17T09:36:26.794Z,15.50
2023-04-17T09:38:56.001Z,15.67
2023-04-17T09:41:26.166Z,15.84
2023-04-17T09:43:55.614Z,16.01
2023-04-17T09:46:38.317Z,16.20
2023-04-17T09:49:12.167Z,16.30
2023-04-17T09:51:40.898Z,16.38
2023-04-17T09:54:11.761Z,16.52
2023-04-17T09:56:41.234Z,16.69
2023-04-17T09:59:10.364Z,16.87
2023-04-17T10:01:40.087Z,16.99
2023-04-17T10:04:08.279Z,17.13
2023-04-17T10:06:37.298Z,17.24
2023-04-17T10:09:05.915Z,17.35
2023-04-17T10:11:39.346Z,17.45
2023-04-17T10:14:13.980Z,17.43
2023-04-17T10:16:43.656Z,17.49
2023-04-17T10:19:29.950Z,17.59
2023-04-17T10:22:30.027Z,17.73
2023-04-17T10:25:22.174Z,17.85
2023-04-17T10:27:56.130Z,17.87
2023-04-17T10:30:24.308Z,17.94
2023-04-17T10:33:22.004Z,17.94
2023-04-17T10:35:50.236Z,17.92
2023-04-17T10:38:32.692Z,17.94
2023-04-17T10:41:03.942Z,17.87
2023-04-17T10:43:33.188Z,17.81
2023-04-17T10:46:06.443Z,17.89
2023-04-17T10:48:36.335Z,17.91
2023-04-17T10:51:37.866Z,17.82
2023-04-17T10:54:10.291Z,17.77
2023-04-17T10:56:40.172Z,17.72
2023-04-17T10:59:11.600Z,17.58
2023-04-17T11:01:41.577Z,17.58
2023-04-17T11:04:11.494Z,17.63
2023-04-17T11:06:40.990Z,17.54
2023-04-17T11:09:10.575Z,17.49
2023-04-17T11:11:44.543Z,17.44
2023-04-17T11:14:16.527Z,17.39
2023-04-17T11:16:46.346Z,17.44
2023-04-17T11:19:19.423Z,17.75
2023-04-17T11:21:49.907Z,17.85
2023-04-17T11:24:26.749Z,17.68
2023-04-17T11:26:56.293Z,17.42
2023-04-17T11:29:26.226Z,17.49
2023-04-17T11:31:55.422Z,17.61
2023-04-17T11:34:23.663Z,17.82
2023-04-17T11:36:51.996Z,18.07
2023-04-17T11:39:20.496Z,18.38
2023-04-17T11:41:49.613Z,18.60
2023-04-17T11:44:18.874Z,18.75
2023-04-17T11:46:52.411Z,18.93
2023-04-17T11:49:25.644Z,18.91
2023-04-17T11:51:54.370Z,18.71
2023-04-17T11:54:26.687Z,18.53
2023-04-17T11:57:02.221Z,18.66
2023-04-17T11:59:34.530Z,18.86
2023-04-17T12:02:04.622Z,19.13
2023-04-17T12:04:34.793Z,19.27
2023-04-17T12:07:03.652Z,19.48
2023-04-17T12:09:32.703Z,19.66
2023-04-17T12:12:01.385Z,19.99
2023-04-17T12:14:29.470Z,20.21
2023-04-17T12:16:57.749Z,20.35
2023-04-17T12:19:29.472Z,20.26
2023-04-17T12:21:59.162Z,20.02
2023-04-17T12:24:27.220Z,19.98
2023-04-17T12:26:55.193Z,20.17
2023-04-17T12:29:32.693Z,20.34
2023-04-17T12:32:11.538Z,20.34
2023-04-17T12:34:40.891Z,20.21
2023-04-17T12:37:09.034Z,20.34
2023-04-17T12:39:36.941Z,20.49
2023-04-17T12:42:05.290Z,20.72
2023-04-17T12:44:33.099Z,20.82
2023-04-17T12:47:00.903Z,20.95
2023-04-17T12:49:28.802Z,21.07
2023-04-17T12:51:58.256Z,21.24
2023-04-17T12:54:27.117Z,21.37
2023-04-17T12:56:55.982Z,21.53
2023-04-17T12:59:23.958Z,21.66
2023-04-17T13:01:51.901Z,21.80
2023-04-17T13:04:20.095Z,21.76
2023-04-17T13:06:48.692Z,21.80
2023-04-17T13:09:18.150Z,21.97
2023-04-17T13:11:45.921Z,22.10
2023-04-17T13:14:15.348Z,22.17
2023-04-17T13:16:43.396Z,22.14
2023-04-17T13:19:11.485Z,22.23
2023-04-17T13:21:39.365Z,22.32
2023-04-17T13:24:09.077Z,22.33
2023-04-17T13:26:39.303Z,22.39
2023-04-17T13:29:07.149Z,22.55
2023-04-17T13:31:35.619Z,22.64
2023-04-17T13:34:03.775Z,22.62
2023-04-17T13:36:32.273Z,22.62
2023-04-17T13:39:00.209Z,22.77
2023-04-17T13:41:28.917Z,22.85
2023-04-17T13:43:58.261Z,22.95
2023-04-17T13:46:26.115Z,23.05
2023-04-17T13:48:53.976Z,23.18
2023-04-17T13:51:22.462Z,23.15
2023-04-17T13:53:50.944Z,23.04
2023-04-17T13:56:18.707Z,22.97
2023-04-17T13:58:47.952Z,23.10
2023-04-17T14:01:17.610Z,23.25
2023-04-17T14:03:46.244Z,23.11
2023-04-17T14:06:14.577Z,22.82
2023-04-17T14:08:44.223Z,22.55
2023-04-17T14:11:12.318Z,22.34
2023-04-17T14:13:40.335Z,22.52
2023-04-17T14:16:08.462Z,22.53
2023-04-17T14:18:37.679Z,22.42
2023-04-17T14:21:05.776Z,22.00
2023-04-17T14:23:33.769Z,21.59
2023-04-17T14:26:01.565Z,21.53
2023-04-17T14:28:29.377Z,21.58
2023-04-17T14:30:57.218Z,21.60
2023-04-17T14:33:25.227Z,21.65
2023-04-17T14:35:56.712Z,21.48
2023-04-17T14:38:24.561Z,21.14
2023-04-17T14:40:52.612Z,20.83
2023-04-17T14:43:20.439Z,20.48
2023-04-17T14:45:48.365Z,20.24
2023-04-17T14:48:16.137Z,20.10
2023-04-17T14:50:43.963Z,19.90
2023-04-17T14:53:13.150Z,19.68
2023-04-17T14:55:41.569Z,19.48
2023-04-17T14:58:09.429Z,19.31
2023-04-17T15:00:38.372Z,19.06
2023-04-17T15:03:07.465Z,18.95
2023-04-17T15:05:35.479Z,18.81
2023-04-17T15:08:03.309Z,18.64
2023-04-17T15:10:44.299Z,18.49
2023-04-17T15:13:16.119Z,18.27
2023-04-17T15:15:43.964Z,18.06
2023-04-17T15:18:11.978Z,17.85
2023-04-17T15:20:40.125Z,17.64
2023-04-17T15:23:08.009Z,17.50
2023-04-17T15:25:37.161Z,17.38
2023-04-17T15:28:05.051Z,17.20
2023-04-17T15:30:32.834Z,17.12
2023-04-17T15:33:00.670Z,17.02
2023-04-17T15:35:28.604Z,16.88
2023-04-17T15:37:56.481Z,16.77
2023-04-17T15:40:24.409Z,16.63
2023-04-17T15:42:53.602Z,16.52
2023-04-17T15:45:23.960Z,16.32
2023-04-17T15:47:51.789Z,16.19
2023-04-17T15:50:19.915Z,16.06
2023-04-17T15:52:47.762Z,15.93
2023-04-17T15:55:16.122Z,15.77
2023-04-17T15:57:44.580Z,15.62
2023-04-17T16:00:15.303Z,15.51
2023-04-17T16:02:47.755Z,15.40
2023-04-17T16:05:16.017Z,15.31
2023-04-17T16:07:43.946Z,15.26
2023-04-17T16:10:15.216Z,15.19
2023-04-17T16:12:44.008Z,15.10
2023-04-17T16:15:16.463Z,14.98
2023-04-17T16:17:45.653Z,14.84
2023-04-17T16:20:17.422Z,14.69
2023-04-17T16:22:45.322Z,14.58
2023-04-17T16:25:13.963Z,14.44
2023-04-17T16:27:43.820Z,14.29
2023-04-17T16:30:25.641Z,14.16
2023-04-17T16:32:53.502Z,14.07
2023-04-17T16:35:21.911Z,13.98
2023-04-17T16:37:49.881Z,13.93
2023-04-17T16:40:18.317Z,13.86
2023-04-17T16:42:46.185Z,13.79
2023-04-17T16:45:14.675Z,13.69
2023-04-17T16:47:44.570Z,13.57
2023-04-17T16:50:12.817Z,13.39
2023-04-17T16:52:41.217Z,13.25
2023-04-17T16:55:12.143Z,13.12
2023-04-17T16:57:44.605Z,12.97
2023-04-17T17:00:21.132Z,12.82
2023-04-17T17:02:50.574Z,12.72
2023-04-17T17:05:18.395Z,12.63
2023-04-17T17:07:46.455Z,12.55
2023-04-17T17:10:14.722Z,12.47
2023-04-17T17:12:43.403Z,12.38
2023-04-17T17:15:13.609Z,12.29
2023-04-17T17:17:43.009Z,12.24
2023-04-17T17:20:15.894Z,12.19
2023-04-17T17:22:43.681Z,12.12
2023-04-17T17:25:14.558Z,12.06
2023-04-17T17:27:42.415Z,12.01
2023-04-17T17:30:10.781Z,11.95
2023-04-17T17:32:39.562Z,11.90
2023-04-17T17:35:08.476Z,11.85
2023-04-17T17:37:37.662Z,11.78
2023-04-17T17:40:06.393Z,11.69
2023-04-17T17:42:34.093Z,11.62
2023-04-17T17:45:01.909Z,11.52
2023-04-17T17:47:29.672Z,11.45
2023-04-17T17:49:57.426Z,11.35
2023-04-17T17:52:25.080Z,11.30
2023-04-17T17:54:54.149Z,11.22
2023-04-17T17:57:22.072Z,11.15
2023-04-17T17:59:49.805Z,11.07
2023-04-17T18:02:17.554Z,10.99
2023-04-17T18:04:45.511Z,10.90
2023-04-17T18:07:13.238Z,10.80
2023-04-17T18:09:40.880Z,10.73
2023-04-17T18:12:09.957Z,10.68
2023-04-17T18:14:37.619Z,10.65
2023-04-17T18:17:05.302Z,10.59
2023-04-17T18:19:33.008Z,10.55
2023-04-17T18:22:00.882Z,10.49
2023-04-17T18:24:28.749Z,10.43
2023-04-17T18:26:57.169Z,10.38
2023-04-17T18:29:26.323Z,10.33
2023-04-17T18:31:54.568Z,10.28
2023-04-17T18:34:23.347Z,10.24
2023-04-17T18:36:51.072Z,10.17
2023-04-17T18:39:20.104Z,10.14
2023-04-17T18:41:48.020Z,10.09
2023-04-17T18:44:15.680Z,10.06
2023-04-17T18:46:44.788Z,10.00
2023-04-17T18:49:12.574Z,9.96
2023-04-17T18:51:40.545Z,9.93
2023-04-17T18:54:08.689Z,9.90
2023-04-17T18:56:36.342Z,9.84
2023-04-17T18:59:04.000Z,9.80
2023-04-17T19:01:31.708Z,9.77
2023-04-17T19:04:00.681Z,9.73
2023-04-17T19:06:28.321Z,9.71
2023-04-17T19:08:56.947Z,9.67
2023-04-17T19:11:25.440Z,9.62
2023-04-17T19:13:53.096Z,9.59
2023-04-17T19:16:20.911Z,9.53
2023-04-17T19:18:48.710Z,9.51
2023-04-17T19:21:17.696Z,9.48
2023-04-17T19:23:46.497Z,9.45
2023-04-17T19:26:15.805Z,9.41
2023-04-17T19:28:43.558Z,9.38
2023-04-17T19:31:11.246Z,9.35
2023-04-17T19:33:39.034Z,9.31
2023-04-17T19:36:07.043Z,9.28
2023-04-17T19:38:36.112Z,9.25
2023-04-17T19:41:12.115Z,9.24
2023-04-17T19:43:39.774Z,9.23
2023-04-17T19:46:08.687Z,9.21
2023-04-17T19:48:36.517Z,9.20
2023-04-17T19:51:04.457Z,9.16
2023-04-17T19:53:32.899Z,9.16
2023-04-17T19:56:02.083Z,9.15
2023-04-17T19:58:30.626Z,9.09
2023-04-17T20:00:58.885Z,9.07
2023-04-17T20:03:28.000Z,9.03
2023-04-17T20:05:56.296Z,8.97
2023-04-17T20:08:24.042Z,8.96
2023-04-17T20:10:51.786Z,8.92
2023-04-17T20:13:21.349Z,8.90
2023-04-17T20:15:49.171Z,8.85
2023-04-17T20:18:16.817Z,8.83
2023-04-17T20:20:44.496Z,8.85
2023-04-17T20:23:12.251Z,8.82
2023-04-17T20:25:39.952Z,8.78
2023-04-17T20:28:07.678Z,8.75
2023-04-17T20:30:36.661Z,8.73
2023-04-17T20:33:04.735Z,8.72
2023-04-17T20:35:32.482Z,8.66
2023-04-17T20:38:00.363Z,8.65
2023-04-17T20:40:28.377Z,8.63
2023-04-17T20:42:56.244Z,8.63
2023-04-17T20:45:24.106Z,8.59
2023-04-17T20:47:56.803Z,8.53
2023-04-17T20:50:25.458Z,8.49
2023-04-17T20:52:53.116Z,8.46
2023-04-17T20:55:20.877Z,8.44
2023-04-17T20:57:49.014Z,8.42
2023-04-17T21:00:17.342Z,8.40
2023-04-17T21:02:45.627Z,8.38
2023-04-17T21:05:14.676Z,8.37
2023-04-17T21:07:42.365Z,8.35
2023-04-17T21:10:10.225Z,8.33
2023-04-17T21:12:37.929Z,8.32
2023-04-17T21:15:06.561Z,8.30
2023-04-17T21:17:34.385Z,8.29
2023-04-17T21:20:02.080Z,8.27
2023-04-17T21:22:31.150Z,8.26
2023-04-17T21:24:58.779Z,8.24
2023-04-17T21:27:26.458Z,8.24
2023-04-17T21:29:54.176Z,8.21
2023-04-17T21:32:22.284Z,8.21
2023-04-17T21:34:49.943Z,8.22
2023-04-17T21:37:17.657Z,8.20
2023-04-17T21:39:46.782Z,8.18
2023-04-17T21:42:14.790Z,8.17
2023-04-17T21:44:42.491Z,8.16
2023-04-17T21:47:10.651Z,8.14
2023-04-17T21:49:38.337Z,8.15
2023-04-17T21:52:06.020Z,8.16
2023-04-17T21:54:34.482Z,8.16
2023-04-17T21:57:03.719Z,8.13
2023-04-17T21:59:31.683Z,8.12
2023-04-17T22:01:59.336Z,8.11
2023-04-17T22:04:27.296Z,8.08
2023-04-17T22:06:55.233Z,8.08
2023-04-17T22:09:22.938Z,8.07
2023-04-17T22:11:50.716Z,8.03
2023-04-17T22:14:19.662Z,8.03
2023-04-17T22:16:47.453Z,8.02
2023-04-17T22:19:15.226Z,7.99
2023-04-17T22:21:42.853Z,7.98
2023-04-17T22:24:10.744Z,7.98
2023-04-17T22:26:38.792Z,7.98
2023-04-17T22:29:06.407Z,8.00
2023-04-17T22:31:35.472Z,8.01
2023-04-17T22:34:03.167Z,7.98
2023-04-17T22:36:31.116Z,7.97
2023-04-17T22:38:58.827Z,7.97
2023-04-17T22:41:26.560Z,7.96
2023-04-17T22:43:54.252Z,7.94
2023-04-17T22:46:21.888Z,7.93
2023-04-17T22:48:50.923Z,7.90
2023-04-17T22:51:18.597Z,7.90
2023-04-17T22:53:46.621Z,7.88
2023-04-17T22:56:14.402Z,7.88
2023-04-17T22:58:42.094Z,7.86
2023-04-17T23:01:09.793Z,7.83
2023-04-17T23:03:37.618Z,7.81
2023-04-17T23:06:07.448Z,7.79
2023-04-17T23:08:35.326Z,7.79
2023-04-17T23:11:04.856Z,7.79
2023-04-17T23:13:32.535Z,7.77
2023-04-17T23:16:00.340Z,7.72
2023-04-17T23:18:28.012Z,7.68
2023-04-17T23:20:55.649Z,7.67
2023-04-17T23:23:24.667Z,7.65
2023-04-17T23:26:02.905Z,7.63
2023-04-17T23:28:31.294Z,7.62
2023-04-17T23:30:59.502Z,7.60
2023-04-17T23:33:27.673Z,7.58
2023-04-17T23:35:55.384Z,7.55
2023-04-17T23:38:24.605Z,7.52
2023-04-17T23:40:52.400Z,7.50
2023-04-17T23:43:20.027Z,7.50
2023-04-17T23:45:47.719Z,7.49
2023-04-17T23:48:15.434Z,7.47
2023-04-17T23:50:43.193Z,7.45
2023-04-17T23:53:10.827Z,7.43
2023-04-17T23:55:39.779Z,7.40
2023-04-17T23:58:07.567Z,7.36
